Time;durP1;ratioP1;P1;durP2;ratioP2;P2;SDS_P1;SDS_P2;PMS_P1;PMS_P2;Temp;Humidity;BMP_temperature;BMP_pressure;BME280_temperature;BME280_humidity;BME280_pressure;Samples;Min_cycle;Max_cycle;Signal;HPM_P1;HPM_P2
2023/05/13 00:00:55;;;;;;;1.77;1.30;;;;;;;;;;6270837;22;19999;-77
2023/05/13 00:03:20;;;;;;;2.55;1.42;;;;;;;;;;6270487;22;20411;-77
2023/05/13 00:05:46;;;;;;;3.65;1.50;;;;;;;;;;6270327;22;20391;-77
2023/05/13 00:08:12;;;;;;;2.10;1.30;;;;;;;;;;6269769;22;20312;-77
2023/05/13 00:10:37;;;;;;;4.05;1.60;;;;;;;;;;6270635;22;20004;-77
2023/05/13 00:13:02;;;;;;;2.83;1.40;;;;;;;;;;6270442;22;20008;-77
2023/05/13 00:15:28;;;;;;;3.72;1.52;;;;;;;;;;6270541;22;20432;-77
2023/05/13 00:17:53;;;;;;;2.40;1.63;;;;;;;;;;6270282;22;20008;-77
2023/05/13 00:20:19;;;;;;;2.22;1.33;;;;;;;;;;6270520;22;20054;-77
2023/05/13 00:22:44;;;;;;;2.78;1.50;;;;;;;;;;6269697;22;20078;-77
2023/05/13 00:25:10;;;;;;;3.58;1.60;;;;;;;;;;6270488;22;20031;-77
2023/05/13 00:27:35;;;;;;;3.45;1.52;;;;;;;;;;6271138;22;20007;-77
2023/05/13 00:30:01;;;;;;;3.88;1.60;;;;;;;;;;6272367;22;20010;-77
2023/05/13 00:32:26;;;;;;;2.58;1.50;;;;;;;;;;6272582;22;20329;-77
2023/05/13 00:34:52;;;;;;;3.03;1.33;;;;;;;;;;6272198;22;19999;-77
2023/05/13 00:37:17;;;;;;;3.13;1.50;;;;;;;;;;6272160;22;20008;-77
2023/05/13 00:39:43;;;;;;;4.85;1.58;;;;;;;;;;6271925;22;20011;-77
2023/05/13 00:42:11;;;;;;;6.80;2.13;;;;;;;;;;6272780;22;20007;-77
2023/05/13 00:44:37;;;;;;;3.17;1.70;;;;;;;;;;6245054;22;20004;-77
2023/05/13 00:47:04;;;;;;;2.72;1.50;;;;;;;;;;6245135;22;20006;-77
2023/05/13 00:49:31;;;;;;;2.35;1.40;;;;;;;;;;6272035;22;20012;-78
2023/05/13 00:51:57;;;;;;;2.17;1.50;;;;;;;;;;6272039;22;20028;-77
2023/05/13 00:54:22;;;;;;;2.08;1.38;;;;;;;;;;6244747;22;20027;-78
2023/05/13 00:56:47;;;;;;;2.80;1.48;;;;;;;;;;6272371;22;20462;-77
2023/05/13 00:59:13;;;;;;;3.72;1.60;;;;;;;;;;6271873;22;20038;-77
2023/05/13 01:01:54;;;;;;;3.53;1.40;;;;;;;;;;6245112;22;20000;-77
2023/05/13 01:04:33;;;;;;;2.03;1.40;;;;;;;;;;6272150;22;20026;-78
2023/05/13 01:07:36;;;;;;;2.67;1.02;;;;;;;;;;6271709;22;20436;-78
2023/05/13 01:10:22;;;;;;;2.05;1.25;;;;;;;;;;6271755;22;20497;-77
2023/05/13 01:12:54;;;;;;;2.13;1.15;;;;;;;;;;6272262;22;19995;-77
2023/05/13 01:15:24;;;;;;;2.92;1.30;;;;;;;;;;6271884;22;20010;-77
2023/05/13 01:17:54;;;;;;;2.17;1.40;;;;;;;;;;6272328;22;20347;-78
2023/05/13 01:20:22;;;;;;;4.28;1.45;;;;;;;;;;6271888;22;20372;-77
2023/05/13 01:22:47;;;;;;;2.05;1.20;;;;;;;;;;6271592;22;20079;-77
2023/05/13 01:25:13;;;;;;;2.17;1.20;;;;;;;;;;6271774;22;20050;-77
2023/05/13 01:27:38;;;;;;;2.88;1.30;;;;;;;;;;6271878;22;19999;-77
2023/05/13 01:30:05;;;;;;;2.85;1.30;;;;;;;;;;6271694;22;20026;-77
2023/05/13 01:32:32;;;;;;;1.65;1.27;;;;;;;;;;6272213;22;20494;-77
2023/05/13 01:34:58;;;;;;;2.42;1.42;;;;;;;;;;6271395;22;19996;-77
2023/05/13 01:37:24;;;;;;;2.22;1.30;;;;;;;;;;6271609;22;20067;-78
2023/05/13 01:39:50;;;;;;;2.00;1.27;;;;;;;;;;6270925;22;20464;-76
2023/05/13 01:42:16;;;;;;;2.20;1.40;;;;;;;;;;6271851;22;20003;-77
2023/05/13 01:44:41;;;;;;;4.07;1.48;;;;;;;;;;6244447;22;20008;-77
2023/05/13 01:47:06;;;;;;;3.28;1.35;;;;;;;;;;6244852;22;20008;-77
2023/05/13 01:49:32;;;;;;;2.63;1.40;;;;;;;;;;6271366;22;20003;-77
2023/05/13 01:51:57;;;;;;;3.88;1.50;;;;;;;;;;6271215;22;20006;-78
2023/05/13 01:54:24;;;;;;;4.60;1.45;;;;;;;;;;6271793;22;20502;-77
2023/05/13 01:56:50;;;;;;;3.08;1.33;;;;;;;;;;6272019;22;20062;-76
2023/05/13 01:59:15;;;;;;;2.70;1.38;;;;;;;;;;6271502;22;20003;-77
2023/05/13 02:01:41;;;;;;;3.50;1.60;;;;;;;;;;6271476;22;19999;-77
2023/05/13 02:04:06;;;;;;;2.45;1.60;;;;;;;;;;6271773;22;20010;-77
2023/05/13 02:06:32;;;;;;;2.50;1.40;;;;;;;;;;6271042;22;20465;-77
2023/05/13 02:08:57;;;;;;;3.95;1.60;;;;;;;;;;6244062;22;20065;-77
2023/05/13 02:11:23;;;;;;;6.32;1.70;;;;;;;;;;6271298;22;19996;-77
2023/05/13 02:13:48;;;;;;;3.38;1.50;;;;;;;;;;6271672;22;20428;-77
2023/05/13 02:16:16;;;;;;;2.72;1.48;;;;;;;;;;6271206;22;20410;-77
2023/05/13 02:18:41;;;;;;;3.15;1.52;;;;;;;;;;6244361;22;20326;-77
2023/05/13 02:21:07;;;;;;;2.50;1.50;;;;;;;;;;6270879;22;20494;-77
2023/05/13 02:23:32;;;;;;;3.70;1.60;;;;;;;;;;6271551;22;20047;-77
2023/05/13 02:25:58;;;;;;;3.45;1.58;;;;;;;;;;6271630;22;20320;-77
2023/05/13 02:28:23;;;;;;;3.20;1.80;;;;;;;;;;6271400;22;20014;-77
2023/05/13 02:30:49;;;;;;;3.92;2.00;;;;;;;;;;6271002;22;20038;-77
2023/05/13 02:33:14;;;;;;;2.45;1.67;;;;;;;;;;6271179;22;20079;-77
2023/05/13 02:35:40;;;;;;;3.67;1.88;;;;;;;;;;6270895;22;20000;-77
2023/05/13 02:38:08;;;;;;;4.25;2.10;;;;;;;;;;6271102;22;20008;-77
2023/05/13 02:40:34;;;;;;;3.22;1.83;;;;;;;;;;6270574;22;20018;-77
2023/05/13 02:42:59;;;;;;;2.55;1.80;;;;;;;;;;6271704;22;20031;-76
2023/05/13 02:45:24;;;;;;;3.33;2.10;;;;;;;;;;6271226;22;20023;-77
2023/05/13 02:47:50;;;;;;;3.53;2.00;;;;;;;;;;6271049;22;20012;-77
2023/05/13 02:50:16;;;;;;;3.47;1.98;;;;;;;;;;6243306;22;20004;-77
2023/05/13 02:52:41;;;;;;;5.35;2.30;;;;;;;;;;6270415;22;20446;-77
2023/05/13 02:55:08;;;;;;;2.97;1.90;;;;;;;;;;6270961;22;20427;-77
2023/05/13 02:57:34;;;;;;;5.55;2.10;;;;;;;;;;6271121;22;20102;-76
2023/05/13 02:59:59;;;;;;;3.60;2.00;;;;;;;;;;6270858;22;20015;-77
2023/05/13 03:02:24;;;;;;;2.92;1.90;;;;;;;;;;6271478;22;20004;-77
2023/05/13 03:04:50;;;;;;;3.28;1.95;;;;;;;;;;6270830;22;20419;-77
2023/05/13 03:07:15;;;;;;;2.97;1.83;;;;;;;;;;6270391;22;20010;-76
2023/05/13 03:09:41;;;;;;;3.45;2.03;;;;;;;;;;6270885;22;20147;-77
2023/05/13 03:12:07;;;;;;;4.13;1.90;;;;;;;;;;6270776;22;20003;-77
2023/05/13 03:14:35;;;;;;;3.40;2.00;;;;;;;;;;6271397;22;19999;-77
2023/05/13 03:17:04;;;;;;;3.85;1.90;;;;;;;;;;6270700;22;20000;-77
2023/05/13 03:19:29;;;;;;;2.97;1.90;;;;;;;;;;6270769;22;20015;-77
2023/05/13 03:21:55;;;;;;;3.47;2.20;;;;;;;;;;6270050;22;20079;-77
2023/05/13 03:24:20;;;;;;;3.67;2.10;;;;;;;;;;6270966;22;20011;-77
2023/05/13 03:26:46;;;;;;;4.65;1.98;;;;;;;;;;6270986;22;20067;-77
2023/05/13 03:29:11;;;;;;;3.28;2.08;;;;;;;;;;6270868;22;20008;-77
2023/05/13 03:31:36;;;;;;;4.20;1.92;;;;;;;;;;6270281;22;20547;-77
2023/05/13 03:34:02;;;;;;;5.60;1.92;;;;;;;;;;6270678;22;20057;-76
2023/05/13 03:36:27;;;;;;;3.78;2.20;;;;;;;;;;6269937;22;20635;-76
2023/05/13 03:38:53;;;;;;;4.53;2.00;;;;;;;;;;6270443;22;20622;-77
2023/05/13 03:41:18;;;;;;;3.78;2.05;;;;;;;;;;6270433;22;20361;-77
2023/05/13 03:43:44;;;;;;;4.05;2.03;;;;;;;;;;6270824;22;20003;-77
2023/05/13 03:46:13;;;;;;;3.47;2.33;;;;;;;;;;6270527;22;20061;-78
2023/05/13 03:48:38;;;;;;;4.20;2.40;;;;;;;;;;6270600;22;20558;-76
2023/05/13 03:51:04;;;;;;;5.00;2.10;;;;;;;;;;6269737;22;20026;-77
2023/05/13 03:53:29;;;;;;;2.95;1.88;;;;;;;;;;6270846;22;20022;-77
2023/05/13 03:55:55;;;;;;;3.47;2.08;;;;;;;;;;6270338;22;20000;-77
2023/05/13 03:58:23;;;;;;;4.70;2.00;;;;;;;;;;6270620;22;20034;-76
2023/05/13 04:00:48;;;;;;;3.47;2.10;;;;;;;;;;6243083;22;20046;-77
2023/05/13 04:03:15;;;;;;;3.50;2.15;;;;;;;;;;6270435;22;20528;-77
2023/05/13 04:05:45;;;;;;;4.43;2.30;;;;;;;;;;6270461;22;20003;-77
2023/05/13 04:08:10;;;;;;;3.35;2.10;;;;;;;;;;6270022;22;20004;-77
2023/05/13 04:10:35;;;;;;;4.47;2.15;;;;;;;;;;6270055;22;20114;-77
2023/05/13 04:13:01;;;;;;;4.32;2.40;;;;;;;;;;6270561;22;20400;-77
2023/05/13 04:15:26;;;;;;;5.68;2.38;;;;;;;;;;6270404;22;20050;-78
2023/05/13 04:17:52;;;;;;;4.82;2.10;;;;;;;;;;6243098;22;20016;-77
2023/05/13 04:20:18;;;;;;;3.28;2.15;;;;;;;;;;6270341;22;20042;-77
2023/05/13 04:22:43;;;;;;;4.18;2.60;;;;;;;;;;6269855;22;20073;-77
2023/05/13 04:25:09;;;;;;;3.60;2.30;;;;;;;;;;6270716;22;20008;-77
2023/05/13 04:27:34;;;;;;;5.32;2.45;;;;;;;;;;6270378;22;20006;-77
2023/05/13 04:30:00;;;;;;;4.32;2.40;;;;;;;;;;6270343;22;20008;-78
2023/05/13 04:32:26;;;;;;;4.68;2.80;;;;;;;;;;6270229;22;20010;-77
2023/05/13 04:34:52;;;;;;;3.97;2.40;;;;;;;;;;6243251;22;20335;-77
2023/05/13 04:37:17;;;;;;;8.85;2.90;;;;;;;;;;6269868;22;20023;-77
2023/05/13 04:39:46;;;;;;;7.53;2.85;;;;;;;;;;6270329;22;20011;-77
2023/05/13 04:42:13;;;;;;;5.22;2.88;;;;;;;;;;6270057;22;20004;-77
2023/05/13 04:44:38;;;;;;;6.70;2.85;;;;;;;;;;6270460;22;20003;-77
2023/05/13 04:47:04;;;;;;;5.82;2.70;;;;;;;;;;6270071;22;20099;-77
2023/05/13 04:49:30;;;;;;;5.00;2.85;;;;;;;;;;6270496;22;20659;-77
2023/05/13 04:51:56;;;;;;;3.50;2.50;;;;;;;;;;6269270;22;20031;-77
2023/05/13 04:54:21;;;;;;;5.82;2.88;;;;;;;;;;6270269;22;20004;-77
2023/05/13 04:56:46;;;;;;;3.90;2.53;;;;;;;;;;6242900;22;20095;-77
2023/05/13 04:59:12;;;;;;;4.82;3.03;;;;;;;;;;6270466;22;20007;-77
2023/05/13 05:01:37;;;;;;;4.63;2.90;;;;;;;;;;6269811;22;20101;-77
2023/05/13 05:04:03;;;;;;;5.32;2.75;;;;;;;;;;6270439;22;20003;-78
2023/05/13 05:06:30;;;;;;;6.65;2.80;;;;;;;;;;6269774;22;20014;-77
2023/05/13 05:08:55;;;;;;;4.45;3.00;;;;;;;;;;6270120;22;20471;-77
2023/05/13 05:11:21;;;;;;;5.72;2.78;;;;;;;;;;6242352;22;20008;-77
2023/05/13 05:13:46;;;;;;;8.77;3.15;;;;;;;;;;6270270;22;20010;-77
2023/05/13 05:16:11;;;;;;;6.60;2.92;;;;;;;;;;6271969;22;20091;-77
2023/05/13 05:18:39;;;;;;;8.02;3.08;;;;;;;;;;6272025;22;20008;-77
2023/05/13 05:21:06;;;;;;;4.75;2.80;;;;;;;;;;6271585;22;20000;-77
2023/05/13 05:23:32;;;;;;;5.97;3.00;;;;;;;;;;6272141;22;20384;-78
2023/05/13 05:25:59;;;;;;;9.13;3.00;;;;;;;;;;6272268;22;20010;-77
2023/05/13 05:28:24;;;;;;;4.13;2.83;;;;;;;;;;6271775;22;20007;-78
2023/05/13 05:30:50;;;;;;;6.68;2.90;;;;;;;;;;6271944;22;20091;-78
2023/05/13 05:33:16;;;;;;;6.45;3.00;;;;;;;;;;6271636;22;20007;-78
2023/05/13 05:35:42;;;;;;;7.18;3.50;;;;;;;;;;6244499;22;20008;-78
2023/05/13 05:38:07;;;;;;;7.60;2.90;;;;;;;;;;6271509;22;20003;-78
2023/05/13 05:40:44;;;;;;;5.93;2.92;;;;;;;;;;6271553;22;20022;-77
2023/05/13 05:43:09;;;;;;;5.82;3.15;;;;;;;;;;6271824;22;20015;-78
2023/05/13 05:45:36;;;;;;;7.40;3.17;;;;;;;;;;6272043;22;20008;-77
2023/05/13 05:48:02;;;;;;;7.30;3.50;;;;;;;;;;6271812;22;20057;-77
2023/05/13 05:50:28;;;;;;;5.68;3.03;;;;;;;;;;6272094;22;20004;-77
2023/05/13 05:52:54;;;;;;;5.35;3.13;;;;;;;;;;6270939;22;20372;-77
2023/05/13 05:55:20;;;;;;;5.13;3.15;;;;;;;;;;6271864;22;19996;-78
2023/05/13 05:57:45;;;;;;;5.97;3.28;;;;;;;;;;6271663;22;20007;-77
2023/05/13 06:00:12;;;;;;;5.65;3.00;;;;;;;;;;6271943;22;20862;-77
2023/05/13 06:02:37;;;;;;;7.30;3.60;;;;;;;;;;6271336;22;20061;-77
2023/05/13 06:05:03;;;;;;;7.82;3.60;;;;;;;;;;6271711;22;20003;-77
2023/05/13 06:07:28;;;;;;;4.50;3.03;;;;;;;;;;6243635;22;20000;-77
2023/05/13 06:09:54;;;;;;;7.63;3.00;;;;;;;;;;6271681;22;20459;-77
2023/05/13 06:12:19;;;;;;;6.32;3.40;;;;;;;;;;6271173;22;20036;-77
2023/05/13 06:14:45;;;;;;;6.03;3.47;;;;;;;;;;6271703;22;20000;-78
2023/05/13 06:17:13;;;;;;;6.03;3.40;;;;;;;;;;6271410;22;19999;-77
2023/05/13 06:19:41;;;;;;;6.38;3.15;;;;;;;;;;6271801;22;20154;-76
2023/05/13 06:22:08;;;;;;;7.22;3.42;;;;;;;;;;6270800;22;19999;-77
2023/05/13 06:24:33;;;;;;;5.10;3.10;;;;;;;;;;6271483;22;20540;-78
2023/05/13 06:27:02;;;;;;;5.50;3.40;;;;;;;;;;6271214;22;20515;-78
2023/05/13 06:29:27;;;;;;;7.65;3.20;;;;;;;;;;6271335;22;20011;-78
2023/05/13 06:31:53;;;;;;;8.57;3.53;;;;;;;;;;6271202;22;20463;-78
2023/05/13 06:34:18;;;;;;;6.85;3.00;;;;;;;;;;6271542;22;20424;-78
2023/05/13 06:36:44;;;;;;;6.25;3.30;;;;;;;;;;6271141;22;20336;-77
2023/05/13 06:39:11;;;;;;;7.88;3.47;;;;;;;;;;6270978;22;20085;-77
2023/05/13 06:41:37;;;;;;;8.23;3.22;;;;;;;;;;6271275;22;19999;-77
2023/05/13 06:44:06;;;;;;;6.10;3.30;;;;;;;;;;6271234;22;20006;-77
2023/05/13 06:46:31;;;;;;;4.53;3.47;;;;;;;;;;6271393;22;20012;-77
2023/05/13 06:48:57;;;;;;;5.32;3.70;;;;;;;;;;6270887;22;20014;-77
2023/05/13 06:51:29;;;;;;;6.80;3.53;;;;;;;;;;6270671;22;20004;-77
2023/05/13 06:53:55;;;;;;;6.50;3.28;;;;;;;;;;6270718;22;20006;-78
2023/05/13 06:56:21;;;;;;;5.68;3.38;;;;;;;;;;6271143;22;20003;-78
2023/05/13 06:58:48;;;;;;;5.97;3.15;;;;;;;;;;6270986;22;20008;-77
2023/05/13 07:01:15;;;;;;;7.25;3.30;;;;;;;;;;6271151;22;20008;-77
2023/05/13 07:03:40;;;;;;;5.28;3.35;;;;;;;;;;6270891;22;20008;-77
2023/05/13 07:06:11;;;;;;;5.93;3.50;;;;;;;;;;6270911;22;19995;-77
2023/05/13 07:08:37;;;;;;;8.10;3.67;;;;;;;;;;6270844;22;20320;-77
2023/05/13 07:11:03;;;;;;;6.22;3.42;;;;;;;;;;6271057;22;20033;-77
2023/05/13 07:13:29;;;;;;;7.18;3.47;;;;;;;;;;6270559;22;20004;-77
2023/05/13 07:15:55;;;;;;;6.10;3.20;;;;;;;;;;6271461;22;20420;-77
2023/05/13 07:18:20;;;;;;;6.57;3.33;;;;;;;;;;6270789;22;20018;-78
2023/05/13 07:20:48;;;;;;;6.38;3.42;;;;;;;;;;6243870;22;20010;-77
2023/05/13 07:23:13;;;;;;;7.55;3.30;;;;;;;;;;6243172;22;20730;-77
2023/05/13 07:25:39;;;;;;;5.63;3.30;;;;;;;;;;6271228;22;20495;-77
2023/05/13 07:28:04;;;;;;;6.65;3.10;;;;;;;;;;6270740;22;20011;-77
2023/05/13 07:30:30;;;;;;;6.43;3.30;;;;;;;;;;6271146;22;20004;-78
2023/05/13 07:32:55;;;;;;;6.45;3.38;;;;;;;;;;6270388;22;20565;-77
2023/05/13 07:35:21;;;;;;;7.20;3.05;;;;;;;;;;6270791;22;20019;-77
2023/05/13 07:37:49;;;;;;;4.45;3.00;;;;;;;;;;6270024;22;20015;-78
2023/05/13 07:40:14;;;;;;;5.57;3.15;;;;;;;;;;6243218;22;20051;-77
2023/05/13 07:42:40;;;;;;;5.85;3.58;;;;;;;;;;6270791;22;20006;-76
2023/05/13 07:45:21;;;;;;;6.20;3.22;;;;;;;;;;6270415;22;20006;-77
2023/05/13 07:47:47;;;;;;;6.90;3.40;;;;;;;;;;6243494;22;20057;-77
2023/05/13 07:50:12;;;;;;;8.75;3.30;;;;;;;;;;6270364;22;20024;-76
2023/05/13 07:52:38;;;;;;;5.65;3.05;;;;;;;;;;6270106;22;20395;-76
2023/05/13 07:55:04;;;;;;;5.85;3.10;;;;;;;;;;6270648;22;20388;-77
2023/05/13 07:57:29;;;;;;;6.30;3.10;;;;;;;;;;6243480;22;20078;-77
2023/05/13 07:59:55;;;;;;;5.63;3.28;;;;;;;;;;6270544;22;20044;-77
2023/05/13 08:02:20;;;;;;;5.50;3.30;;;;;;;;;;6271123;22;20074;-77
2023/05/13 08:04:46;;;;;;;5.40;3.15;;;;;;;;;;6270730;22;20447;-77
2023/05/13 08:07:11;;;;;;;4.82;2.80;;;;;;;;;;6270088;22;20094;-77
2023/05/13 08:09:37;;;;;;;6.03;2.75;;;;;;;;;;6270285;22;20004;-77
2023/05/13 08:12:02;;;;;;;6.88;2.90;;;;;;;;;;6270479;22;20000;-77
2023/05/13 08:14:28;;;;;;;7.28;2.80;;;;;;;;;;6270418;22;20430;-78
2023/05/13 08:16:53;;;;;;;4.55;2.75;;;;;;;;;;6270695;22;20070;-78
2023/05/13 08:19:19;;;;;;;6.68;2.70;;;;;;;;;;6270392;22;20079;-77
2023/05/13 08:21:45;;;;;;;5.53;3.10;;;;;;;;;;6243091;22;20035;-78
2023/05/13 08:24:11;;;;;;;7.05;3.00;;;;;;;;;;6270411;22;20010;-78
2023/05/13 08:26:39;;;;;;;5.60;3.00;;;;;;;;;;6243317;22;20040;-77
2023/05/13 08:29:04;;;;;;;4.15;2.90;;;;;;;;;;6242815;22;20468;-77
2023/05/13 08:31:31;;;;;;;7.13;2.80;;;;;;;;;;6270429;22;20003;-77
2023/05/13 08:33:56;;;;;;;6.70;3.17;;;;;;;;;;6269984;22;20004;-77
2023/05/13 08:36:24;;;;;;;6.25;2.90;;;;;;;;;;6243420;22;20008;-77
2023/05/13 08:38:50;;;;;;;6.13;3.00;;;;;;;;;;6242502;22;20372;-78
2023/05/13 08:41:15;;;;;;;8.65;3.10;;;;;;;;;;6270644;22;20602;-78
2023/05/13 08:43:46;;;;;;;4.05;2.78;;;;;;;;;;6270222;22;20131;-77
2023/05/13 08:46:11;;;;;;;7.25;3.30;;;;;;;;;;6270472;22;20026;-77
2023/05/13 08:48:38;;;;;;;7.50;2.85;;;;;;;;;;6270828;22;20008;-77
2023/05/13 08:51:04;;;;;;;6.15;2.97;;;;;;;;;;6271845;22;20034;-77
2023/05/13 08:53:30;;;;;;;6.60;2.88;;;;;;;;;;6272281;22;20000;-77
2023/05/13 08:55:56;;;;;;;4.57;2.63;;;;;;;;;;6245253;22;20031;-77
2023/05/13 08:58:23;;;;;;;5.47;2.85;;;;;;;;;;6272540;22;20015;-77
2023/05/13 09:00:55;;;;;;;4.15;2.53;;;;;;;;;;6272163;22;20147;-77
2023/05/13 09:03:20;;;;;;;6.07;2.60;;;;;;;;;;6272142;22;20003;-77
2023/05/13 09:05:46;;;;;;;5.15;2.40;;;;;;;;;;6244435;22;20006;-77
2023/05/13 09:08:12;;;;;;;6.93;2.95;;;;;;;;;;6271827;22;20011;-77
2023/05/13 09:10:37;;;;;;;4.75;2.30;;;;;;;;;;6271957;22;20004;-77
2023/05/13 09:13:03;;;;;;;4.13;2.28;;;;;;;;;;6245051;22;20075;-78
2023/05/13 09:15:30;;;;;;;5.68;2.55;;;;;;;;;;6271945;22;20424;-77
2023/05/13 09:18:05;;;;;;;6.97;2.78;;;;;;;;;;6272316;22;20369;-77
2023/05/13 09:20:38;;;;;;;5.60;2.55;;;;;;;;;;6272129;22;20056;-77
2023/05/13 09:23:09;;;;;;;9.45;2.88;;;;;;;;;;6271606;22;20000;-77
2023/05/13 09:25:36;;;;;;;7.78;2.58;;;;;;;;;;6271690;22;20012;-77
2023/05/13 09:28:04;;;;;;;5.80;2.38;;;;;;;;;;6270984;22;20008;-77
2023/05/13 09:30:37;;;;;;;7.18;3.05;;;;;;;;;;6271164;22;20075;-77
2023/05/13 09:33:02;;;;;;;4.60;2.50;;;;;;;;;;6271776;22;20003;-77
2023/05/13 09:35:30;;;;;;;5.22;2.47;;;;;;;;;;6244608;22;20011;-77
2023/05/13 09:37:56;;;;;;;4.93;2.63;;;;;;;;;;6271708;22;20037;-78
2023/05/13 09:40:21;;;;;;;5.18;2.50;;;;;;;;;;6271636;22;20399;-77
2023/05/13 09:42:47;;;;;;;4.07;2.20;;;;;;;;;;6271907;22;20384;-77
2023/05/13 09:45:14;;;;;;;7.00;2.45;;;;;;;;;;6271714;22;20031;-77
2023/05/13 09:47:43;;;;;;;6.20;2.42;;;;;;;;;;6272067;22;20010;-77
2023/05/13 09:50:10;;;;;;;5.22;2.28;;;;;;;;;;6271624;22;20339;-77
2023/05/13 09:52:38;;;;;;;4.97;2.65;;;;;;;;;;6271619;22;20003;-77
2023/05/13 09:55:07;;;;;;;5.50;2.20;;;;;;;;;;6271657;22;20038;-77
2023/05/13 09:57:33;;;;;;;6.25;2.42;;;;;;;;;;6244523;22;20011;-77
2023/05/13 10:00:04;;;;;;;6.18;2.38;;;;;;;;;;6271331;22;20010;-77
2023/05/13 10:02:30;;;;;;;6.60;2.75;;;;;;;;;;6271657;22;20508;-78
2023/05/13 10:04:57;;;;;;;7.10;2.40;;;;;;;;;;6271352;22;20042;-77
2023/05/13 10:07:24;;;;;;;8.90;2.70;;;;;;;;;;6244008;22;20014;-78
2023/05/13 10:09:56;;;;;;;6.38;2.60;;;;;;;;;;6271009;22;20018;-77
2023/05/13 10:12:24;;;;;;;5.80;2.30;;;;;;;;;;6244464;22;20093;-77
2023/05/13 10:14:52;;;;;;;4.40;2.30;;;;;;;;;;6270992;22;20093;-77
2023/05/13 10:17:22;;;;;;;6.20;2.00;;;;;;;;;;6271872;22;20004;-77
2023/05/13 10:19:52;;;;;;;5.43;2.25;;;;;;;;;;6271338;22;20004;-77
2023/05/13 10:22:30;;;;;;;6.63;2.28;;;;;;;;;;6271375;22;20007;-77
2023/05/13 10:24:57;;;;;;;6.93;2.40;;;;;;;;;;6271093;22;20043;-77
2023/05/13 10:27:27;;;;;;;4.32;2.20;;;;;;;;;;6244359;22;20609;-77
2023/05/13 10:29:54;;;;;;;7.82;2.63;;;;;;;;;;6271120;22;20022;-77
2023/05/13 10:32:21;;;;;;;5.63;2.42;;;;;;;;;;6271542;22;20038;-77
2023/05/13 10:34:47;;;;;;;4.35;2.15;;;;;;;;;;6271233;22;20078;-77
2023/05/13 10:37:40;;;;;;;4.65;2.10;;;;;;;;;;6270840;22;20014;-78
2023/05/13 10:40:31;;;;;;;4.68;1.83;;;;;;;;;;6271094;22;20456;-77
2023/05/13 10:43:12;;;;;;;5.97;2.03;;;;;;;;;;6271293;22;20000;-77
2023/05/13 10:45:37;;;;;;;4.75;2.30;;;;;;;;;;6271305;22;20003;-77
2023/05/13 10:48:07;;;;;;;6.22;2.55;;;;;;;;;;6271323;22;20074;-77
2023/05/13 10:50:36;;;;;;;4.07;2.15;;;;;;;;;;6270967;22;20003;-77
2023/05/13 10:53:08;;;;;;;3.58;2.05;;;;;;;;;;6271023;22;20004;-77
2023/05/13 10:55:42;;;;;;;4.38;2.20;;;;;;;;;;6270641;22;20082;-77
2023/05/13 10:58:14;;;;;;;6.40;2.13;;;;;;;;;;6271457;22;20071;-77
2023/05/13 11:00:42;;;;;;;4.47;2.17;;;;;;;;;;6271044;22;20011;-77
2023/05/13 11:03:13;;;;;;;5.47;2.00;;;;;;;;;;6271035;22;20004;-77
2023/05/13 11:06:12;;;;;;;4.07;1.92;;;;;;;;;;6270797;22;20035;-77
2023/05/13 11:08:43;;;;;;;4.35;2.08;;;;;;;;;;6236578;22;20022;-76
2023/05/13 11:11:21;;;;;;;5.10;2.42;;;;;;;;;;6271061;22;20802;-77
2023/05/13 11:14:01;;;;;;;5.20;2.50;;;;;;;;;;6270761;22;20030;-78
2023/05/13 11:16:26;;;;;;;4.35;2.00;;;;;;;;;;6271049;22;20007;-77
2023/05/13 11:18:52;;;;;;;6.57;2.35;;;;;;;;;;6271413;22;20125;-77
2023/05/13 11:21:31;;;;;;;5.03;1.83;;;;;;;;;;6270433;22;20466;-78
2023/05/13 11:24:00;;;;;;;5.38;1.95;;;;;;;;;;6270867;22;20010;-78
2023/05/13 11:26:26;;;;;;;5.38;1.95;;;;;;;;;;6270577;22;19996;-77
2023/05/13 11:29:05;;;;;;;5.97;2.25;;;;;;;;;;6270757;22;20003;-78
2023/05/13 11:31:44;;;;;;;4.68;1.95;;;;;;;;;;6270784;22;20003;-77
2023/05/13 11:34:12;;;;;;;4.70;1.92;;;;;;;;;;6270622;22;20004;-78
2023/05/13 11:36:39;;;;;;;4.65;1.80;;;;;;;;;;6270457;22;20038;-77
2023/05/13 11:39:11;;;;;;;5.70;1.80;;;;;;;;;;6270695;22;20513;-77
2023/05/13 11:41:41;;;;;;;3.47;1.70;;;;;;;;;;6270368;22;20023;-77
2023/05/13 11:44:07;;;;;;;4.78;1.80;;;;;;;;;;6270663;22;20007;-77
2023/05/13 11:46:32;;;;;;;7.03;1.90;;;;;;;;;;6270393;22;20003;-78
2023/05/13 11:48:58;;;;;;;4.25;1.92;;;;;;;;;;6270900;22;20004;-78
2023/05/13 11:51:26;;;;;;;3.75;1.52;;;;;;;;;;6270071;22;20036;-77
2023/05/13 11:54:01;;;;;;;4.43;1.50;;;;;;;;;;6270394;22;20004;-77
2023/05/13 11:56:30;;;;;;;3.85;1.40;;;;;;;;;;6270570;22;20036;-77
2023/05/13 11:59:11;;;;;;;5.30;1.85;;;;;;;;;;6270815;22;20086;-77
2023/05/13 12:01:41;;;;;;;3.22;1.38;;;;;;;;;;6270526;22;20007;-77
2023/05/13 12:04:07;;;;;;;6.20;1.77;;;;;;;;;;6243074;22;20094;-78
2023/05/13 12:06:33;;;;;;;4.75;1.40;;;;;;;;;;6269786;22;20035;-77
2023/05/13 12:09:06;;;;;;;3.67;1.50;;;;;;;;;;6270517;22;20003;-77
2023/05/13 12:11:32;;;;;;;4.80;1.70;;;;;;;;;;6270367;22;20006;-78
2023/05/13 12:13:58;;;;;;;5.38;1.50;;;;;;;;;;6270698;22;20120;-78
2023/05/13 12:16:24;;;;;;;2.88;1.27;;;;;;;;;;6270416;22;20386;-77
2023/05/13 12:19:05;;;;;;;4.15;1.20;;;;;;;;;;6270633;22;20045;-77
2023/05/13 12:21:33;;;;;;;4.32;1.25;;;;;;;;;;6269740;22;19999;-78
2023/05/13 12:23:59;;;;;;;4.32;1.50;;;;;;;;;;6244902;22;20407;-77
2023/05/13 12:26:25;;;;;;;3.40;1.40;;;;;;;;;;6273645;22;20443;-77
2023/05/13 12:28:59;;;;;;;4.03;1.60;;;;;;;;;;6273841;22;20494;-77
2023/05/13 12:31:25;;;;;;;4.68;1.50;;;;;;;;;;6273640;22;20003;-77
2023/05/13 12:33:51;;;;;;;4.38;1.40;;;;;;;;;;6274089;22;20025;-77
2023/05/13 12:36:24;;;;;;;3.88;1.58;;;;;;;;;;6273427;22;20500;-77
2023/05/13 12:39:09;;;;;;;6.10;1.73;;;;;;;;;;6273710;22;20004;-77
2023/05/13 12:41:39;;;;;;;2.03;1.33;;;;;;;;;;6273628;22;20054;-78
2023/05/13 12:44:09;;;;;;;3.03;1.40;;;;;;;;;;6273635;22;20003;-77
2023/05/13 12:46:35;;;;;;;3.55;1.60;;;;;;;;;;6246454;22;20447;-77
2023/05/13 12:49:03;;;;;;;4.13;1.50;;;;;;;;;;6273926;22;20003;-77
2023/05/13 12:51:29;;;;;;;3.72;1.30;;;;;;;;;;6273173;22;20027;-77
2023/05/13 12:53:56;;;;;;;3.65;1.45;;;;;;;;;;6273969;22;20018;-77
2023/05/13 12:56:23;;;;;;;4.57;1.60;;;;;;;;;;6273597;22;20000;-76
2023/05/13 12:58:49;;;;;;;4.07;1.52;;;;;;;;;;6273778;22;20003;-77
2023/05/13 13:01:18;;;;;;;3.53;1.25;;;;;;;;;;6273584;22;19996;-77
2023/05/13 13:03:44;;;;;;;3.58;1.38;;;;;;;;;;6273679;22;20023;-77
2023/05/13 13:06:11;;;;;;;2.50;1.30;;;;;;;;;;6273037;22;20015;-77
2023/05/13 13:08:40;;;;;;;4.03;1.83;;;;;;;;;;6273466;22;20020;-77
2023/05/13 13:11:05;;;;;;;2.03;1.23;;;;;;;;;;6246547;22;20008;-77
2023/05/13 13:13:34;;;;;;;4.50;1.38;;;;;;;;;;6273316;22;20086;-76
2023/05/13 13:16:02;;;;;;;3.08;1.20;;;;;;;;;;6273503;22;20004;-76
2023/05/13 13:18:27;;;;;;;3.30;1.25;;;;;;;;;;6273361;22;20627;-76
2023/05/13 13:20:55;;;;;;;4.53;1.20;;;;;;;;;;6273011;22;20038;-78
2023/05/13 13:23:21;;;;;;;3.47;1.25;;;;;;;;;;6246032;22;20000;-76
2023/05/13 13:25:46;;;;;;;3.42;1.35;;;;;;;;;;6273407;22;20007;-77
2023/05/13 13:28:12;;;;;;;4.85;1.30;;;;;;;;;;6273450;22;20182;-77
2023/05/13 13:30:37;;;;;;;3.95;1.40;;;;;;;;;;6273750;22;20008;-77
2023/05/13 13:33:03;;;;;;;3.38;1.40;;;;;;;;;;6273379;22;20007;-77
2023/05/13 13:35:28;;;;;;;2.85;1.30;;;;;;;;;;6272271;22;20057;-77
2023/05/13 13:37:54;;;;;;;4.85;1.25;;;;;;;;;;6271018;22;20010;-77
2023/05/13 13:40:20;;;;;;;2.92;1.25;;;;;;;;;;6271697;22;20605;-77
2023/05/13 13:42:45;;;;;;;4.32;1.30;;;;;;;;;;6271789;22;20001;-77
2023/05/13 13:45:12;;;;;;;4.88;1.45;;;;;;;;;;6271746;22;19999;-78
2023/05/13 13:47:38;;;;;;;3.03;1.20;;;;;;;;;;6271651;22;20004;-77
2023/05/13 13:50:04;;;;;;;2.00;1.10;;;;;;;;;;6244694;22;20124;-77
2023/05/13 13:52:29;;;;;;;4.32;1.20;;;;;;;;;;6271203;22;20004;-77
2023/05/13 13:54:55;;;;;;;3.53;1.30;;;;;;;;;;6271740;22;20027;-77
2023/05/13 13:57:20;;;;;;;2.17;1.02;;;;;;;;;;6244299;22;20008;-77
2023/05/13 13:59:45;;;;;;;3.22;1.15;;;;;;;;;;6271909;22;20424;-76
2023/05/13 14:02:11;;;;;;;4.40;1.40;;;;;;;;;;6271393;22;20003;-76
2023/05/13 14:04:37;;;;;;;4.97;1.67;;;;;;;;;;6271584;22;20065;-77
2023/05/13 14:07:02;;;;;;;3.70;1.25;;;;;;;;;;6271689;22;20000;-76
2023/05/13 14:09:28;;;;;;;2.60;1.30;;;;;;;;;;6271421;22;20003;-76
2023/05/13 14:11:53;;;;;;;3.65;1.38;;;;;;;;;;6244602;22;20007;-77
2023/05/13 14:14:19;;;;;;;2.80;1.40;;;;;;;;;;6271450;22;20432;-77
2023/05/13 14:16:44;;;;;;;2.65;1.20;;;;;;;;;;6271536;22;19996;-76
2023/05/13 14:19:10;;;;;;;3.60;1.20;;;;;;;;;;6271173;22;20015;-77
2023/05/13 14:21:35;;;;;;;5.22;1.30;;;;;;;;;;6271169;22;19997;-76
2023/05/13 14:24:01;;;;;;;2.80;1.00;;;;;;;;;;6271272;22;20018;-76
2023/05/13 14:26:26;;;;;;;3.05;1.17;;;;;;;;;;6271486;22;20038;-76
2023/05/13 14:28:52;;;;;;;3.33;1.20;;;;;;;;;;6271106;22;20390;-76
2023/05/13 14:31:18;;;;;;;2.10;1.10;;;;;;;;;;6271636;22;20071;-76
2023/05/13 14:33:43;;;;;;;4.55;1.13;;;;;;;;;;6271313;22;20053;-76
2023/05/13 14:36:10;;;;;;;3.40;1.02;;;;;;;;;;6270672;22;20465;-76
2023/05/13 14:38:37;;;;;;;2.80;1.20;;;;;;;;;;6271424;22;19999;-77
2023/05/13 14:41:02;;;;;;;2.70;1.13;;;;;;;;;;6271237;22;20035;-76
2023/05/13 14:43:28;;;;;;;2.65;1.27;;;;;;;;;;6270985;22;20011;-77